This is the latest recevied weather packets stored in our database for station/object KC2BRB-1. If no packets are shown the sender has not sent any weather packets the latest 10 day(s).
| Time | Temp. | Humidity | Pressure | Rain* | Wind** | Luminosity | Snow |
|---|---|---|---|---|---|---|---|
| 1777834651 | 25.56° C | 57% | 1015.1 hPa | 0 mm | - | - | - |
| 1777833697 | 25.56° C | 59% | 1015.2 hPa | 0 mm | - | - | - |
| 1777833446 | 25.56° C | 59% | 1015.2 hPa | 0 mm | - | - | - |
| 1777833147 | 25° C | 63% | 1015.3 hPa | 0 mm | - | - | - |
| 1777833064 | 25° C | 63% | 1015.3 hPa | 0 mm | - | - | - |
| 1777832847 | 25° C | 63% | 1015.3 hPa | 0 mm | - | - | - |
| 1777832547 | 25.56° C | 60% | 1015.3 hPa | 0 mm | - | - | - |
| 1777832247 | 25.56° C | 60% | 1015.3 hPa | 0 mm | - | - | - |
| 1777831947 | 24.44° C | 63% | 1015.6 hPa | 0 mm | - | - | - |
| 1777831647 | 24.44° C | 63% | 1015.6 hPa | 0 mm | - | - | - |
| 1777831347 | 23.89° C | 65% | 1015.7 hPa | 0 mm | - | - | - |
| 1777830147 | 24.44° C | 64% | 1015.7 hPa | 0 mm | - | - | - |
| 1777829306 | 25° C | 63% | 1015.8 hPa | 0 mm | - | - | - |
| 1777828648 | 25° C | 63% | 1015.8 hPa | 0 mm | - | - | - |
| 1777828347 | 24.44° C | 67% | 1015.9 hPa | 0 mm | - | - | - |
| 1777828047 | 24.44° C | 67% | 1015.9 hPa | 0 mm | - | - | - |
| 1777827495 | 23.33° C | 68% | 1016.2 hPa | 0 mm | - | - | - |
| 1777827447 | 23.89° C | 65% | 1016.2 hPa | 0 mm | - | - | - |
| 1777827148 | 23.33° C | 68% | 1016.2 hPa | 0 mm | - | - | - |
| 1777826247 | 22.78° C | 68% | 1016.3 hPa | 0 mm | - | - | - |
| 1777825947 | 22.78° C | 70% | 1016.3 hPa | 0 mm | - | - | - |
| 1777825898 | 22.78° C | 70% | 1016.3 hPa | 0 mm | - | - | - |
| 1777825648 | 22.78° C | 70% | 1016.3 hPa | 0 mm | - | - | - |
| 1777825347 | 22.22° C | 71% | 1016.3 hPa | 0 mm | - | - | - |
| 1777825047 | 22.22° C | 71% | 1016.3 hPa | 0 mm | - | - | - |
* Rain latest hour (hover to see other rain measurements)
** Current wind speed in m/s (hover to see current wind gust speed)